Explorer - northwestern half: Past 24 Hour Conditions

 

South Hecate Strait - 46185

06:00 AM PST 07 February 2016Buoy position: 52.43N 129.79W
Disclaimer

This table is a summary of hourly weather conditions for the past 24 hours.
Please note that these observations might not always be representative of weather conditions over their associated marine area.

Date / Time
(PST)
Wind(knots) Wave height(m) Wave period(s) Pressure(kPa) Air tempC) Water tempC)
07 February 2016
6:00 SE 33 gust 43 5.0 10.0 102.2 7 9
5:00 SE 33 gust 41 4.8 9.0 102.1 8 9
4:00 SE 33 gust 41 4.7 9.0 102.1 8 9
3:00 SE 33 gust 41 4.4 9.0 102.2 7 9
2:00 SSE 33 gust 43 4.0 8.0 102.2 7 9
1:00 SSE 31 gust 39 3.7 7.0 102.3 8 9
0:00 SSE 33 gust 41 3.5 7.0 102.3 8 9
06 February 2016
23:00 SSE 29 gust 37 3.3 7.0 102.4 8 9
22:00 SSE 27 gust 31 3.2 11.0 102.5 8 9
21:00 SSE 25 gust 31 2.7 10.0 102.5 8 9
20:00 SSE 23 gust 29 2.6 9.0 102.5 8 9
19:00 SSE 23 gust 29 2.6 10.0 102.6 8 9
18:00 S 19 gust 27 2.5 10.0 102.6 8 9
17:00 SSE 19 gust 21 2.5 10.0 102.6 8 9
16:00 SSE 16 gust 18 2.2 11.0 102.6 8 9
15:00 S 12 gust 16 2.5 10.0 102.6 8 9
14:00 S 14 gust 19 2.6 11.0 102.6 8 9
13:00 SSW 14 gust 18 2.4 11.0 102.6 8 9
12:00 SSW 8 gust 12 2.6 11.0 102.6 8 9
11:00 SSW 10 gust 14 2.7 10.0 102.6 7 9
10:00 WSW 10 gust 12 3.1 11.0 102.5 7 9
9:00 W 10 gust 12 3.1 10.0 102.4 7 9
8:00 W 12 gust 14 3.4 10.0 102.3 7 9
7:00 WSW 16 gust 18 3.1 12.0 102.2 7 9
6:00 WSW 16 gust 21 3.3 12.0 102.2 8 9

Zoom-in to make a selection

Map of Pacific - South Coast marine weather areas Tsawwassen Ferry Terminal South Nomad - 46036 Sentry Shoal - 46131 South Brooks - 46132 Halibut Bank - 46146 South Moresby - 46147 South Hecate Strait - 46185 West Sea Otter - 46204 La Perouse Bank - 46206 East Dellwood - 46207 Discovery Island Esquimalt Harbour Kelp Reefs Malahat Race Rocks Lightstation Saturna Island Sheringham Point University of Victoria Victoria Gonzales Victoria Int'l Airport Ballenas Islands Campbell River Airport Comox Airport Entrance Island Fanny Island Nanaimo Airport Port Hardy Airport Sisters Islets Estevan Point Sartine Island Solander Island Tofino Airport Grief Point Powell River Airport Sechelt Cape St.James Bella Bella Airport Bella Coola Airport Cathedral Point Herbert Island Point Atkinson Sand Heads Lightstation Vancouver Harbour Vancouver Int'l Airport West Vancouver Port Alberni Howe Sound - Pam Rocks Squamish Airport
Legend:
buoy Buoy
land station Land Station

Pacific - South Coast Area

Another Region

What we are doing

Date modified: